Terminal Aerodrome Forecast
Issued by NWS Greer, SC

Home | Current Version | Previous Version | Text Only | Print | Product List | Glossary On
Versions: 1 2 3 4 5 6 7 8 9 10 11 12 13 14 15
000
FTUS42 KGSP 201123
TAFAVL
TAF
KAVL 201123Z 2012/2112 VRB03KT P6SM FEW250
     FM201800 16006KT P6SM FEW250
     FM210600 VRB02KT P6SM SCT250
     FM211000 15003KT 5SM BR BKN250=

USA.gov is the U.S. government's official web portal to all federal, state and local government web resources and services.